Time;durP1;ratioP1;P1;durP2;ratioP2;P2;SDS_P1;SDS_P2;PMS_P1;PMS_P2;Temp;Humidity;BMP_temperature;BMP_pressure;BME280_temperature;BME280_humidity;BME280_pressure;Samples;Min_cycle;Max_cycle;Signal;HPM_P1;HPM_P2
2021/12/11 00:01:37;;;;;;;6.40;2.40;;;2.40;99.90;;;3.21;100.00;96839.97;5007349;28;20448;-79
2021/12/11 00:04:14;;;;;;;2.23;2.03;;;2.40;99.90;;;3.17;100.00;96851.63;5006449;28;20705;-79
2021/12/11 00:06:49;;;;;;;1.80;1.70;;;2.40;99.90;;;3.16;100.00;96847.41;5009935;28;20579;-79
2021/12/11 00:09:26;;;;;;;2.43;2.23;;;2.40;99.90;;;3.14;100.00;96858.91;5011694;28;20462;-79
2021/12/11 00:12:01;;;;;;;2.60;2.40;;;2.30;99.90;;;3.14;100.00;96856.31;5006493;28;20706;-79
2021/12/11 00:14:33;;;;;;;2.50;2.30;;;2.30;99.90;;;3.13;100.00;96863.25;5010502;28;20493;-79
2021/12/11 00:17:03;;;;;;;2.53;2.33;;;2.30;99.90;;;3.14;100.00;96870.03;5014055;28;20539;-79
2021/12/11 00:19:38;;;;;;;1.97;1.87;;;2.40;99.90;;;3.14;100.00;96877.78;5007898;28;20474;-79
2021/12/11 00:22:13;;;;;;;2.43;2.23;;;2.40;99.90;;;3.15;100.00;96884.56;5009710;28;20467;-79
2021/12/11 00:24:44;;;;;;;2.47;2.13;;;2.40;99.90;;;3.14;100.00;96893.28;5008435;28;20494;-79
2021/12/11 00:27:20;;;;;;;3.30;2.60;;;2.40;99.90;;;3.11;100.00;96901.38;5010165;28;20549;-79
2021/12/11 00:29:53;;;;;;;2.37;2.17;;;2.30;99.90;;;3.10;100.00;96902.31;5009218;28;20550;-79
2021/12/11 00:32:27;;;;;;;2.70;2.50;;;2.20;99.90;;;3.10;100.00;96909.28;5009207;28;20503;-78
2021/12/11 00:35:05;;;;;;;2.40;2.20;;;2.30;99.90;;;3.13;100.00;96907.16;5003056;28;20494;-79
2021/12/11 00:37:35;;;;;;;2.50;2.30;;;2.30;99.90;;;3.13;100.00;96914.91;5008413;28;20866;-79
2021/12/11 00:40:13;;;;;;;2.90;2.70;;;2.40;99.90;;;3.13;100.00;96925.22;5003502;28;21028;-79
2021/12/11 00:42:49;;;;;;;2.90;2.40;;;2.40;99.90;;;3.17;100.00;96926.50;5005906;28;20506;-79
2021/12/11 00:45:28;;;;;;;2.60;2.40;;;2.40;99.90;;;3.15;100.00;96928.47;5006841;28;20829;-79
2021/12/11 00:48:00;;;;;;;3.10;2.73;;;2.40;99.90;;;3.16;100.00;96940.38;5008862;28;20487;-79
2021/12/11 00:50:36;;;;;;;3.37;2.63;;;2.40;99.90;;;3.17;100.00;96939.41;5008463;28;20518;-79
2021/12/11 00:53:14;;;;;;;3.00;2.70;;;2.40;99.90;;;3.20;100.00;96951.19;5005394;28;20458;-79
2021/12/11 00:55:49;;;;;;;2.87;2.40;;;2.50;99.90;;;3.20;100.00;96952.00;5004800;28;20992;-79
2021/12/11 00:58:24;;;;;;;3.40;2.83;;;2.40;99.90;;;3.22;100.00;96952.66;5004568;28;20471;-79
2021/12/11 01:01:00;;;;;;;2.70;2.50;;;2.40;99.90;;;3.23;100.00;96967.16;5005185;28;20463;-79
2021/12/11 01:03:38;;;;;;;2.90;2.70;;;2.60;99.90;;;3.24;100.00;96967.97;5008291;28;20473;-79
2021/12/11 01:06:14;;;;;;;2.77;2.57;;;2.50;99.90;;;3.26;100.00;96969.44;5008594;28;20546;-79
2021/12/11 01:08:52;;;;;;;4.30;3.37;;;2.50;99.90;;;3.26;100.00;96979.75;5005259;28;20525;-78
2021/12/11 01:11:28;;;;;;;5.23;3.23;;;2.60;99.90;;;3.27;100.00;96989.09;4994404;28;20997;-79
2021/12/11 01:14:14;;;;;;;3.37;3.07;;;2.50;99.90;;;3.27;100.00;96994.25;5005915;28;20487;-79
2021/12/11 01:16:56;;;;;;;3.23;2.93;;;2.60;99.90;;;3.24;100.00;97002.34;5004046;28;20795;-79
2021/12/11 01:19:28;;;;;;;3.87;3.50;;;2.60;99.90;;;3.24;100.00;97004.94;5016151;28;20458;-79
2021/12/11 01:22:00;;;;;;;2.83;2.63;;;2.60;99.90;;;3.27;100.00;97020.09;5008300;28;20472;-79
2021/12/11 01:24:43;;;;;;;3.63;3.13;;;2.60;99.90;;;3.28;100.00;97032.03;5009298;28;20522;-79
2021/12/11 01:27:17;;;;;;;4.00;3.23;;;2.60;99.90;;;3.30;100.00;97034.44;5005999;28;20588;-79
2021/12/11 01:29:55;;;;;;;3.87;3.40;;;2.70;99.90;;;3.31;100.00;97036.88;5009399;28;20479;-79
2021/12/11 01:32:30;;;;;;;4.07;3.40;;;2.70;99.90;;;3.31;100.00;97052.38;5009009;28;20859;-79
2021/12/11 01:35:06;;;;;;;4.57;3.40;;;2.60;99.90;;;3.28;100.00;97057.06;5009617;28;20487;-79
2021/12/11 01:37:36;;;;;;;4.83;4.07;;;2.60;99.90;;;3.28;100.00;97067.41;5005701;28;20462;-79
2021/12/11 01:40:13;;;;;;;5.80;3.63;;;2.70;99.90;;;3.30;100.00;97071.41;5005261;28;20471;-79
2021/12/11 01:42:43;;;;;;;4.03;3.60;;;2.60;99.90;;;3.31;100.00;97073.03;5006325;28;21098;-79
2021/12/11 01:45:19;;;;;;;4.80;3.60;;;2.60;99.90;;;3.30;100.00;97081.75;5007046;28;20495;-79
2021/12/11 01:47:49;;;;;;;4.20;3.80;;;2.70;99.90;;;3.28;100.00;97088.06;5008564;28;20868;-79
2021/12/11 01:50:29;;;;;;;6.10;3.77;;;2.70;99.90;;;3.26;100.00;97093.41;5009261;28;20542;-79
2021/12/11 01:53:07;;;;;;;5.33;4.77;;;2.70;99.90;;;3.26;100.00;97097.78;5008537;28;21021;-79
2021/12/11 01:55:44;;;;;;;6.80;5.03;;;2.60;99.90;;;3.29;100.00;97103.41;5004222;28;20504;-79
2021/12/11 01:58:26;;;;;;;6.73;4.70;;;2.70;99.90;;;3.28;100.00;97108.72;5009441;28;20494;-79
2021/12/11 02:01:05;;;;;;;6.30;4.40;;;2.70;99.90;;;3.29;100.00;97111.16;5004724;28;20456;-79
2021/12/11 02:03:35;;;;;;;5.03;4.17;;;2.70;99.90;;;3.30;100.00;97110.16;5007964;28;20467;-79
2021/12/11 02:06:06;;;;;;;6.70;4.33;;;2.70;99.90;;;3.29;100.00;97123.25;5002926;28;20462;-79
2021/12/11 02:08:39;;;;;;;6.80;4.80;;;2.70;99.90;;;3.31;100.00;97124.69;5007163;28;20463;-79
2021/12/11 02:11:17;;;;;;;6.63;5.10;;;2.80;99.90;;;3.32;100.00;97133.25;5007879;28;20440;-79
2021/12/11 02:13:56;;;;;;;6.37;5.03;;;2.70;99.90;;;3.34;100.00;97141.66;5003135;28;20458;-79
2021/12/11 02:16:32;;;;;;;5.93;4.53;;;2.70;99.90;;;3.34;100.00;97155.38;5008253;28;20534;-79
2021/12/11 02:19:14;;;;;;;5.40;3.87;;;2.60;99.90;;;3.36;100.00;97163.78;5007409;28;20463;-79
2021/12/11 02:21:55;;;;;;;5.97;4.90;;;2.80;99.90;;;3.37;100.00;97169.72;5007536;28;20452;-79
2021/12/11 02:24:33;;;;;;;6.00;4.80;;;2.70;99.90;;;3.37;100.00;97164.56;5008582;28;20468;-79
2021/12/11 02:27:10;;;;;;;7.30;5.03;;;2.70;99.90;;;3.37;100.00;97175.72;5008978;28;20468;-79
2021/12/11 02:29:47;;;;;;;7.57;5.30;;;2.70;99.90;;;3.37;100.00;97175.72;5006484;28;20517;-79
2021/12/11 02:32:28;;;;;;;7.40;5.37;;;2.70;99.90;;;3.37;100.00;97183.47;5007363;28;20448;-79
2021/12/11 02:35:10;;;;;;;7.70;5.13;;;2.70;99.90;;;3.35;100.00;97187.19;5035098;28;20838;-79
2021/12/11 02:37:46;;;;;;;6.53;4.90;;;2.60;99.90;;;3.36;100.00;97194.78;5007853;28;20496;-79
2021/12/11 02:40:26;;;;;;;8.53;5.30;;;2.60;99.90;;;3.37;100.00;97206.72;5008866;28;20453;-79
2021/12/11 02:43:02;;;;;;;7.00;4.90;;;2.70;99.90;;;3.39;100.00;97209.16;5007497;28;20536;-79
2021/12/11 02:45:44;;;;;;;6.03;4.73;;;2.70;99.90;;;3.39;100.00;97209.97;5006670;28;20525;-79
2021/12/11 02:48:21;;;;;;;5.97;4.47;;;2.70;99.90;;;3.39;100.00;97222.06;5008665;28;20459;-79
2021/12/11 02:51:00;;;;;;;6.80;4.77;;;2.60;99.90;;;3.33;100.00;97226.09;5004880;28;20978;-79
2021/12/11 02:53:36;;;;;;;6.90;4.93;;;2.60;99.90;;;3.32;100.00;97237.41;5006832;28;20578;-79
2021/12/11 02:56:14;;;;;;;6.60;5.10;;;2.70;99.90;;;3.35;100.00;97231.09;5008393;28;20491;-79
2021/12/11 02:58:52;;;;;;;6.80;4.80;;;2.70;99.90;;;3.35;100.00;97241.44;5006445;28;20462;-79
2021/12/11 03:01:29;;;;;;;8.20;5.60;;;2.70;99.90;;;3.38;100.00;97241.13;5008570;28;20459;-80
2021/12/11 03:04:16;;;;;;;6.13;4.93;;;2.70;99.90;;;3.38;100.00;97241.91;5002886;28;20462;-79
2021/12/11 03:06:49;;;;;;;5.20;4.13;;;2.80;99.90;;;3.39;100.00;97250.50;5008408;28;20469;-79
2021/12/11 03:09:26;;;;;;;5.03;4.27;;;2.80;99.90;;;3.39;100.00;97251.28;5007900;28;20834;-79
2021/12/11 03:11:59;;;;;;;13.80;5.03;;;2.70;99.90;;;3.41;100.00;97253.69;5007112;28;20478;-79
2021/12/11 03:14:30;;;;;;;6.03;5.10;;;2.70;99.90;;;3.39;100.00;97263.41;5007634;28;20445;-79
2021/12/11 03:17:01;;;;;;;5.50;4.47;;;2.70;99.90;;;3.40;100.00;97262.44;4999616;28;20497;-79
2021/12/11 03:19:36;;;;;;;10.10;5.13;;;2.80;99.90;;;3.40;100.00;97267.63;5007187;28;20498;-79
2021/12/11 03:22:12;;;;;;;7.33;4.80;;;2.70;99.90;;;3.39;100.00;97276.31;5007131;28;20544;-79
2021/12/11 03:24:43;;;;;;;5.43;4.77;;;2.70;99.90;;;3.39;100.00;97278.91;5007298;28;20522;-79
2021/12/11 03:27:14;;;;;;;7.50;4.93;;;2.60;99.90;;;3.38;100.00;97280.69;5008416;28;20477;-79
2021/12/11 03:29:45;;;;;;;6.50;4.80;;;2.60;99.90;;;3.36;100.00;97290.38;5010201;28;20491;-79
2021/12/11 03:32:15;;;;;;;9.17;5.17;;;2.60;99.90;;;3.37;100.00;97304.88;5003381;28;20540;-79
2021/12/11 03:34:49;;;;;;;7.10;5.40;;;2.70;99.90;;;3.38;100.00;97311.69;5008115;28;20456;-79
2021/12/11 03:37:23;;;;;;;7.20;5.07;;;2.70;99.90;;;3.36;100.00;97313.63;5007496;28;20551;-79
2021/12/11 03:39:57;;;;;;;7.23;4.80;;;2.60;99.90;;;3.39;100.00;97328.00;5007448;28;20452;-79
2021/12/11 03:42:32;;;;;;;7.83;5.20;;;2.70;99.90;;;3.39;100.00;97323.66;5008263;28;20480;-79
2021/12/11 03:45:05;;;;;;;7.73;5.30;;;2.60;99.90;;;3.38;100.00;97329.78;5010510;28;20973;-79
2021/12/11 03:47:42;;;;;;;11.20;5.17;;;2.60;99.90;;;3.36;100.00;97336.06;5011164;28;20462;-79
2021/12/11 03:50:17;;;;;;;7.40;5.43;;;2.60;99.90;;;3.35;100.00;97335.25;5010445;28;20460;-79
2021/12/11 03:52:50;;;;;;;6.23;5.20;;;2.60;99.90;;;3.30;100.00;97344.44;5010930;28;20452;-79
2021/12/11 03:55:28;;;;;;;6.80;5.77;;;2.50;99.90;;;3.33;100.00;97344.94;5010870;28;20456;-79
2021/12/11 03:58:00;;;;;;;7.77;5.60;;;2.60;99.90;;;3.35;100.00;97360.28;5009924;28;20532;-79
2021/12/11 04:00:38;;;;;;;9.90;5.93;;;2.60;99.90;;;3.34;100.00;97356.88;5009439;28;20860;-79
2021/12/11 04:03:11;;;;;;;7.70;5.40;;;2.60;99.90;;;3.32;100.00;97366.59;5010637;28;20463;-79
2021/12/11 04:05:44;;;;;;;7.60;5.77;;;2.60;99.90;;;3.33;100.00;97382.91;5004846;28;20462;-79
2021/12/11 04:08:22;;;;;;;10.63;5.73;;;2.50;99.90;;;3.35;100.00;97391.28;5011187;28;20474;-79
2021/12/11 04:10:54;;;;;;;7.00;5.87;;;2.60;99.90;;;3.37;100.00;97390.16;5012502;28;20979;-79
2021/12/11 04:13:23;;;;;;;7.73;5.43;;;2.70;99.90;;;3.37;100.00;97392.72;5009485;28;20473;-79
2021/12/11 04:15:56;;;;;;;7.50;5.60;;;2.70;99.90;;;3.35;100.00;97394.69;5010451;28;20526;-79
2021/12/11 04:18:26;;;;;;;6.80;5.33;;;2.60;99.90;;;3.34;100.00;97398.22;5009639;28;20498;-79
2021/12/11 04:20:56;;;;;;;5.67;4.70;;;2.60;99.90;;;3.32;100.00;97395.00;5011133;28;20472;-79
2021/12/11 04:23:27;;;;;;;5.90;4.63;;;2.60;99.90;;;3.28;100.00;97398.03;5005819;28;20551;-79
2021/12/11 04:26:01;;;;;;;7.13;5.10;;;2.60;99.90;;;3.28;100.00;97396.28;5009760;28;20465;-79
2021/12/11 04:28:35;;;;;;;7.97;5.10;;;2.60;99.90;;;3.30;100.00;97396.91;5010568;28;20857;-79
2021/12/11 04:31:12;;;;;;;12.33;5.90;;;2.60;99.90;;;3.27;100.00;97401.59;5007356;28;20476;-79
2021/12/11 04:33:49;;;;;;;8.30;5.73;;;2.50;99.90;;;3.29;100.00;97403.06;5004703;28;20466;-79
2021/12/11 04:36:25;;;;;;;6.40;4.33;;;2.50;99.90;;;3.28;100.00;97409.19;5006245;28;20489;-79
2021/12/11 04:38:57;;;;;;;25.57;11.43;;;2.50;99.90;;;3.27;100.00;97406.75;5008061;28;20464;-79
2021/12/11 04:41:38;;;;;;;9.03;5.73;;;2.50;99.90;;;3.23;100.00;97419.19;5009893;28;20504;-79
2021/12/11 04:44:20;;;;;;;6.20;5.47;;;2.50;99.90;;;3.24;100.00;97427.75;5008065;28;20527;-79
2021/12/11 04:46:52;;;;;;;6.40;5.10;;;2.50;99.90;;;3.22;100.00;97419.34;5004666;28;20463;-79
2021/12/11 04:49:30;;;;;;;9.30;5.17;;;2.50;99.90;;;3.18;100.00;97436.94;5006807;28;20461;-79
2021/12/11 04:52:06;;;;;;;5.87;4.70;;;2.50;99.90;;;3.18;100.00;97439.50;5005624;28;20595;-78
2021/12/11 04:54:49;;;;;;;5.27;4.30;;;2.40;99.90;;;3.17;100.00;97442.25;5007486;28;20467;-79
2021/12/11 05:00:23;;;;;;;6.23;5.17;;;2.40;99.90;;;3.12;100.00;97450.47;5008355;28;20979;-79
2021/12/11 05:06:00;;;;;;;6.70;4.87;;;2.40;99.90;;;3.07;100.00;97464.78;4995567;28;20863;-78
2021/12/11 05:11:38;;;;;;;8.30;5.67;;;2.30;99.90;;;2.97;100.00;97472.66;5007523;28;20463;-79
2021/12/11 05:14:13;;;;;;;8.30;6.70;;;2.20;99.90;;;2.92;100.00;97477.47;5007230;28;20521;-78
2021/12/11 05:16:43;;;;;;;40.17;19.73;;;2.20;99.90;;;2.87;100.00;97477.13;5006872;28;20488;-78
2021/12/11 05:19:14;;;;;;;15.03;8.30;;;2.10;99.90;;;2.83;100.00;97486.94;5008936;28;20552;-77
2021/12/11 05:21:44;;;;;;;12.70;9.27;;;2.20;99.90;;;2.71;100.00;97495.09;5006518;28;20494;-77
2021/12/11 05:24:17;;;;;;;8.47;6.13;;;1.90;99.90;;;2.73;100.00;97500.91;5009541;28;20991;-79
2021/12/11 05:26:47;;;;;;;10.60;6.30;;;1.90;99.90;;;2.71;100.00;97503.63;5008744;28;20528;-77
2021/12/11 05:29:19;;;;;;;8.73;6.30;;;1.90;99.90;;;2.69;100.00;97515.09;5010742;28;20487;-77
2021/12/11 05:31:48;;;;;;;6.40;5.13;;;1.90;99.90;;;2.58;100.00;97515.31;5011287;28;20451;-78
2021/12/11 05:34:18;;;;;;;9.40;5.83;;;1.70;99.90;;;2.49;100.00;97514.47;5010568;28;20455;-78
2021/12/11 05:36:47;;;;;;;6.27;5.00;;;1.60;99.90;;;2.46;100.00;97517.34;5011503;28;20521;-78
2021/12/11 05:39:20;;;;;;;5.40;4.90;;;1.50;99.90;;;2.41;100.00;97522.94;5011796;28;20448;-78
2021/12/11 05:41:53;;;;;;;12.90;5.47;;;1.50;99.90;;;2.35;100.00;97533.03;5012103;28;20788;-77
2021/12/11 05:44:24;;;;;;;7.17;4.60;;;1.40;99.90;;;2.31;100.00;97540.28;5011726;28;20538;-78
2021/12/11 05:46:55;;;;;;;7.40;5.20;;;1.40;99.90;;;2.28;100.00;97543.16;5010095;28;20974;-78
2021/12/11 05:49:28;;;;;;;6.07;4.90;;;1.40;99.90;;;2.30;100.00;97536.06;5011884;28;20473;-78
2021/12/11 05:51:58;;;;;;;7.33;5.30;;;1.40;99.90;;;2.31;100.00;97536.88;5011799;28;20451;-77
2021/12/11 05:54:30;;;;;;;10.50;5.43;;;1.50;99.90;;;2.22;100.00;97546.28;5010628;28;20494;-78
2021/12/11 05:57:10;;;;;;;7.20;5.13;;;1.40;99.90;;;2.14;100.00;97546.25;5011821;28;20585;-77
2021/12/11 05:59:46;;;;;;;6.23;4.97;;;1.20;99.90;;;2.16;100.00;97553.81;5010180;28;21014;-78
2021/12/11 06:02:21;;;;;;;6.23;4.70;;;1.40;99.90;;;2.20;100.00;97557.72;5011532;28;20447;-78
2021/12/11 06:04:55;;;;;;;5.27;4.17;;;1.30;99.90;;;2.15;100.00;97555.59;5010930;28;20501;-78
2021/12/11 06:07:30;;;;;;;10.03;4.60;;;1.30;99.90;;;2.02;100.00;97563.69;5008646;28;21046;-77
2021/12/11 06:10:10;;;;;;;6.00;4.77;;;1.10;99.90;;;1.93;100.00;97576.63;5007232;28;20446;-77
2021/12/11 06:12:39;;;;;;;5.90;4.90;;;1.00;99.90;;;1.92;100.00;97582.72;5010159;28;20494;-77
2021/12/11 06:15:12;;;;;;;6.20;4.23;;;1.10;99.90;;;1.88;100.00;97591.72;5011215;28;20461;-78
2021/12/11 06:17:43;;;;;;;7.00;4.90;;;1.10;99.90;;;1.85;100.00;97597.16;5011674;28;20486;-78
2021/12/11 06:20:19;;;;;;;6.97;4.87;;;1.00;99.90;;;1.77;100.00;97600.44;5002863;28;20458;-78
2021/12/11 06:22:49;;;;;;;6.77;5.00;;;0.90;99.90;;;1.74;100.00;97611.03;5007728;28;20478;-77
2021/12/11 06:25:24;;;;;;;6.27;4.70;;;1.00;99.90;;;1.73;100.00;97619.75;5011453;28;20454;-78
2021/12/11 06:27:55;;;;;;;15.30;6.10;;;1.00;99.90;;;1.69;100.00;97630.47;5007034;28;20826;-77
2021/12/11 06:30:28;;;;;;;7.60;5.77;;;0.90;99.90;;;1.62;100.00;97635.38;5009896;28;20466;-77
2021/12/11 06:32:59;;;;;;;10.77;5.10;;;0.80;99.90;;;1.60;100.00;97639.06;5010674;28;20480;-78
2021/12/11 06:35:44;;;;;;;7.13;4.60;;;0.80;99.90;;;1.61;100.00;97650.97;5009574;28;20489;-77
2021/12/11 06:38:21;;;;;;;7.10;5.53;;;0.70;99.90;;;1.61;100.00;97663.84;5001730;28;20505;-77
2021/12/11 06:40:52;;;;;;;12.23;5.80;;;0.80;99.90;;;1.53;100.00;97665.34;5009513;28;20462;-77
2021/12/11 06:43:24;;;;;;;6.70;5.30;;;0.70;99.90;;;1.50;100.00;97680.28;5010775;28;20477;-77
2021/12/11 06:45:56;;;;;;;8.30;5.83;;;0.80;99.90;;;1.45;100.00;97678.16;5005617;28;20622;-77
2021/12/11 06:48:25;;;;;;;11.70;4.70;;;0.60;99.90;;;1.51;100.00;97687.06;4997501;28;20457;-77
2021/12/11 06:50:56;;;;;;;9.83;6.00;;;0.80;99.90;;;1.43;100.00;97692.09;5011073;28;20454;-77
2021/12/11 06:53:35;;;;;;;10.27;5.87;;;0.70;99.90;;;1.38;100.00;97702.00;5000241;28;20454;-77
2021/12/11 06:56:10;;;;;;;9.37;5.30;;;0.60;99.90;;;1.38;100.00;97702.84;5011033;28;20504;-78
2021/12/11 06:58:40;;;;;;;13.73;6.00;;;0.60;99.90;;;1.42;100.00;97711.09;5008899;28;20510;-78
2021/12/11 07:01:13;;;;;;;12.67;6.13;;;0.60;99.90;;;1.45;100.00;97716.78;5010322;28;20827;-77
2021/12/11 07:03:44;;;;;;;10.83;6.07;;;0.60;99.90;;;1.43;100.00;97726.41;5010600;28;20452;-77
2021/12/11 07:06:15;;;;;;;11.77;6.03;;;0.70;99.90;;;1.46;100.00;97723.53;5005393;28;20468;-77
2021/12/11 07:08:47;;;;;;;9.30;5.97;;;0.70;99.90;;;1.50;100.00;97742.91;5010880;28;20448;-78
2021/12/11 07:11:18;;;;;;;9.73;5.97;;;0.70;99.90;;;1.52;100.00;97760.84;5010229;28;20458;-77
2021/12/11 07:13:48;;;;;;;9.00;6.00;;;0.70;99.90;;;1.49;100.00;97756.75;5010023;28;20448;-77
2021/12/11 07:16:20;;;;;;;10.30;6.77;;;0.70;99.90;;;1.54;100.00;97771.78;5012125;28;20482;-77
2021/12/11 07:18:50;;;;;;;12.00;6.87;;;0.80;99.90;;;1.55;100.00;97776.00;5014175;28;20505;-77
2021/12/11 07:21:19;;;;;;;10.00;6.63;;;0.70;99.90;;;1.58;100.00;97780.06;5014530;28;20887;-77
2021/12/11 07:23:49;;;;;;;10.13;6.70;;;0.80;99.90;;;1.63;100.00;97793.38;5014281;28;20532;-78
2021/12/11 07:26:28;;;;;;;8.80;6.00;;;0.90;99.90;;;1.57;100.00;97799.84;5013946;28;20452;-78
2021/12/11 07:29:02;;;;;;;11.80;6.63;;;0.80;99.90;;;1.62;100.00;97796.88;5014206;28;20496;-77
2021/12/11 07:31:34;;;;;;;10.13;6.67;;;0.80;99.90;;;1.64;100.00;97800.13;5006389;28;20444;-78
2021/12/11 07:34:05;;;;;;;8.23;6.23;;;0.90;99.90;;;1.67;100.00;97805.00;5014324;28;20451;-77
2021/12/11 07:36:34;;;;;;;13.70;7.90;;;1.00;99.90;;;1.67;100.00;97810.97;5014378;28;20806;-77
2021/12/11 07:39:11;;;;;;;9.23;5.93;;;1.00;99.90;;;1.63;100.00;97816.56;5013173;28;20508;-77
2021/12/11 07:41:42;;;;;;;17.07;7.00;;;0.90;99.90;;;1.61;100.00;97821.81;5014039;28;20506;-77
2021/12/11 07:44:11;;;;;;;10.60;6.87;;;0.90;99.90;;;1.62;100.00;97822.66;5013938;28;20513;-77
2021/12/11 07:46:44;;;;;;;9.60;6.37;;;0.90;99.90;;;1.58;100.00;97829.84;5013412;28;20456;-77
2021/12/11 07:49:15;;;;;;;13.83;7.10;;;0.80;99.90;;;1.56;100.00;97834.31;5013868;28;20481;-77
2021/12/11 07:51:44;;;;;;;14.60;7.83;;;0.70;99.90;;;1.56;100.00;97839.47;5013608;28;20444;-78
2021/12/11 07:54:15;;;;;;;10.60;7.03;;;0.80;99.90;;;1.60;100.00;97837.44;5014024;28;20465;-77
2021/12/11 07:56:44;;;;;;;10.07;7.30;;;0.80;99.90;;;1.62;100.00;97838.91;5013495;28;20447;-77
2021/12/11 07:59:16;;;;;;;15.97;9.90;;;0.90;99.90;;;1.59;100.00;97844.34;5014095;28;20595;-77
2021/12/11 08:01:51;;;;;;;15.23;9.37;;;0.90;99.90;;;1.61;100.00;97849.34;5013764;28;20489;-77
2021/12/11 08:04:23;;;;;;;12.23;8.10;;;0.90;99.90;;;1.62;100.00;97856.13;5013596;28;20447;-77
2021/12/11 08:06:54;;;;;;;12.27;7.57;;;1.00;99.90;;;1.65;100.00;97859.25;5008825;28;20444;-77
2021/12/11 08:09:26;;;;;;;12.20;7.37;;;1.00;99.90;;;1.70;100.00;97871.75;5013643;28;20449;-77
2021/12/11 08:11:56;;;;;;;13.23;8.53;;;1.00;99.90;;;1.73;100.00;97868.91;5011624;28;20464;-77
2021/12/11 08:14:26;;;;;;;9.97;7.20;;;1.00;99.90;;;1.74;100.00;97875.66;5013294;28;20840;-77
2021/12/11 08:16:59;;;;;;;23.30;9.00;;;1.00;99.90;;;1.74;100.00;97884.19;5013460;28;20496;-77
2021/12/11 08:19:30;;;;;;;13.00;7.90;;;1.00;99.90;;;1.74;100.00;97883.38;5010700;28;20491;-77
2021/12/11 08:22:06;;;;;;;13.23;7.90;;;0.90;99.90;;;1.70;100.00;97897.50;5013216;28;20520;-77
2021/12/11 08:24:38;;;;;;;14.40;8.10;;;0.80;99.90;;;1.65;100.00;97900.50;5013054;28;20475;-77
2021/12/11 08:27:15;;;;;;;13.60;8.00;;;0.70;99.90;;;1.66;100.00;97902.13;5012836;28;20512;-77
2021/12/11 08:29:49;;;;;;;14.70;8.57;;;0.90;99.90;;;1.64;100.00;97914.31;5012872;28;20464;-77
2021/12/11 08:32:21;;;;;;;13.23;8.53;;;0.90;99.90;;;1.60;100.00;97919.88;5009682;28;20517;-77
2021/12/11 08:34:56;;;;;;;16.30;8.93;;;0.80;99.90;;;1.55;100.00;97919.47;5013215;28;20465;-77
2021/12/11 08:37:27;;;;;;;11.87;8.23;;;0.70;99.90;;;1.50;100.00;97928.41;5013242;28;20443;-77
2021/12/11 08:39:56;;;;;;;15.17;8.60;;;0.70;99.90;;;1.53;100.00;97937.63;5013017;28;20524;-77
2021/12/11 08:42:28;;;;;;;12.90;8.00;;;0.70;99.90;;;1.56;100.00;97945.09;5013009;28;20458;-77
2021/12/11 08:45:05;;;;;;;12.73;7.80;;;0.80;99.90;;;1.63;100.00;97946.19;5012900;28;20853;-77
2021/12/11 08:47:42;;;;;;;17.50;10.33;;;0.80;99.90;;;1.67;100.00;97949.28;5012802;28;20993;-77
2021/12/11 08:50:16;;;;;;;17.07;9.13;;;0.90;99.90;;;1.71;100.00;97956.63;5011140;28;20454;-77
2021/12/11 08:52:53;;;;;;;14.53;9.23;;;0.90;99.90;;;1.72;100.00;97952.31;5012740;28;20454;-77
2021/12/11 08:55:28;;;;;;;16.10;9.53;;;0.90;99.90;;;1.79;100.00;97953.41;5011229;28;20485;-77
2021/12/11 08:57:59;;;;;;;14.20;8.43;;;1.10;99.90;;;1.85;100.00;97953.66;5012600;28;20466;-77
2021/12/11 09:00:36;;;;;;;13.63;8.43;;;1.10;99.90;;;1.85;100.00;97973.47;5012192;28;20501;-78
2021/12/11 09:03:12;;;;;;;15.10;8.87;;;1.00;99.90;;;1.86;100.00;97969.94;5012402;28;20447;-77
2021/12/11 09:05:49;;;;;;;13.40;8.77;;;1.00;99.90;;;1.88;100.00;97968.03;5005505;28;20460;-77
2021/12/11 09:08:24;;;;;;;16.67;9.37;;;1.10;99.90;;;1.92;100.00;97969.41;5012583;28;20508;-78
2021/12/11 09:11:00;;;;;;;14.10;8.47;;;1.20;99.90;;;1.94;100.00;97983.00;5011342;28;20465;-77
2021/12/11 09:13:34;;;;;;;14.50;8.63;;;1.10;99.90;;;1.91;100.00;97978.91;5010657;28;20493;-77
2021/12/11 09:16:15;;;;;;;12.00;8.07;;;1.00;99.90;;;1.92;100.00;97988.28;5012359;28;20453;-77
2021/12/11 09:18:52;;;;;;;12.60;7.60;;;1.10;99.90;;;1.98;100.00;97997.22;5005728;28;20494;-77
2021/12/11 09:21:28;;;;;;;17.20;8.20;;;1.20;99.90;;;2.01;100.00;97996.97;5010789;28;20537;-77
2021/12/11 09:24:04;;;;;;;13.73;7.53;;;1.30;99.90;;;2.06;100.00;98001.72;5008771;28;20463;-77
2021/12/11 09:26:40;;;;;;;18.03;9.20;;;1.30;99.90;;;2.17;100.00;98004.97;5010569;28;20455;-77
2021/12/11 09:29:16;;;;;;;17.50;9.20;;;1.40;99.90;;;2.23;100.00;98012.16;5011761;28;20480;-77
2021/12/11 09:32:00;;;;;;;12.90;8.03;;;1.50;99.90;;;2.27;100.00;98021.28;5012082;28;20962;-77
2021/12/11 09:34:40;;;;;;;16.17;9.27;;;1.50;99.90;;;2.34;100.00;98024.13;5011670;28;20450;-77
2021/12/11 09:37:11;;;;;;;19.07;9.70;;;1.70;99.90;;;2.38;100.00;98023.72;5011929;28;20500;-77
2021/12/11 09:39:45;;;;;;;19.97;9.83;;;1.60;99.90;;;2.43;100.00;98042.16;5004352;28;20566;-77
2021/12/11 09:42:14;;;;;;;15.33;8.40;;;1.70;99.90;;;2.47;100.00;98035.78;5011859;28;20474;-77
2021/12/11 09:44:52;;;;;;;13.20;8.80;;;1.70;99.90;;;2.51;100.00;98050.06;5011636;28;20486;-77
2021/12/11 09:47:28;;;;;;;14.27;8.40;;;1.80;99.90;;;2.54;100.00;98044.63;5009598;28;20799;-77
2021/12/11 09:50:08;;;;;;;20.43;10.00;;;1.90;99.90;;;2.60;100.00;98042.44;5011550;28;20552;-77
2021/12/11 09:52:41;;;;;;;18.33;10.13;;;1.90;99.90;;;2.65;100.00;98045.41;5011297;28;20501;-78
2021/12/11 09:55:19;;;;;;;13.53;8.37;;;2.00;99.90;;;2.66;100.00;98045.28;5010145;28;20466;-77
2021/12/11 09:57:52;;;;;;;14.93;9.00;;;1.90;99.90;;;2.68;100.00;98052.88;5011651;28;20451;-77
2021/12/11 10:00:36;;;;;;;16.90;8.53;;;1.90;99.90;;;2.70;100.00;98056.16;5011012;28;20549;-77
2021/12/11 10:03:11;;;;;;;11.00;8.00;;;2.00;99.90;;;2.69;100.00;98052.75;5011253;28;20857;-77
2021/12/11 10:05:49;;;;;;;14.07;7.97;;;1.90;99.90;;;2.79;100.00;98055.31;5004157;28;20463;-79
2021/12/11 10:08:29;;;;;;;13.13;7.63;;;2.20;99.90;;;2.75;100.00;98046.22;5011573;28;20461;-78
2021/12/11 10:11:11;;;;;;;15.67;8.37;;;2.10;99.90;;;2.73;100.00;98050.72;5007076;28;20446;-77
2021/12/11 10:13:48;;;;;;;16.33;8.60;;;2.00;99.90;;;2.76;100.00;98053.03;5010940;28;20452;-77
2021/12/11 10:16:26;;;;;;;12.60;7.60;;;2.10;99.90;;;2.73;100.00;98059.28;5011475;28;20446;-77
2021/12/11 10:18:57;;;;;;;12.00;8.03;;;2.00;99.90;;;2.77;100.00;98070.16;5010867;28;20999;-78
2021/12/11 10:21:33;;;;;;;13.77;6.90;;;2.10;99.90;;;2.78;100.00;98070.00;5011305;28;20464;-77
2021/12/11 10:24:10;;;;;;;13.00;7.77;;;2.10;99.90;;;2.80;100.00;98069.88;5007230;28;20825;-77
2021/12/11 10:26:41;;;;;;;11.80;8.00;;;2.10;99.90;;;2.86;100.00;98074.47;5011003;28;20514;-78
2021/12/11 10:29:13;;;;;;;14.00;8.57;;;2.20;99.90;;;2.90;100.00;98081.81;5011172;28;20916;-77
2021/12/11 10:31:51;;;;;;;11.60;7.80;;;2.20;99.90;;;2.92;100.00;98085.06;5008817;28;20789;-77
2021/12/11 10:34:26;;;;;;;12.77;7.73;;;2.20;99.90;;;3.01;100.00;98088.59;5010973;28;20467;-77
2021/12/11 10:37:01;;;;;;;15.37;8.43;;;2.40;99.90;;;3.01;100.00;98088.59;5010952;28;20465;-77
2021/12/11 10:39:31;;;;;;;14.90;8.67;;;2.30;99.90;;;3.03;100.00;98086.69;5010985;28;20649;-77
2021/12/11 10:42:01;;;;;;;16.20;7.17;;;2.40;99.90;;;3.03;100.00;98086.69;5010695;28;20828;-77
2021/12/11 10:44:37;;;;;;;10.27;7.07;;;2.40;99.90;;;3.04;100.00;98094.31;5011143;28;20547;-77
2021/12/11 10:47:13;;;;;;;17.30;8.97;;;2.40;99.90;;;3.15;100.00;98085.59;5011170;28;20447;-77
2021/12/11 10:49:55;;;;;;;13.47;7.70;;;2.50;99.90;;;3.12;100.00;98097.97;5012978;28;20546;-77
2021/12/11 10:52:30;;;;;;;18.17;8.20;;;2.40;99.90;;;3.15;100.00;98100.25;5017581;28;20946;-77
2021/12/11 10:55:06;;;;;;;12.13;7.30;;;2.50;99.90;;;3.17;100.00;98099.16;5016925;28;20467;-78
2021/12/11 10:57:35;;;;;;;14.30;8.43;;;2.50;99.90;;;3.27;100.00;98107.69;5017086;28;20452;-77
2021/12/11 11:00:15;;;;;;;13.43;7.43;;;2.70;99.90;;;3.32;100.00;98105.53;5016675;28;20546;-77
2021/12/11 11:02:47;;;;;;;11.47;7.20;;;2.80;99.90;;;3.30;100.00;98119.50;5017406;28;20543;-78